Aérodrome :
LOGIN :

S'inscrire | Disclaimer

   EN    FR    IT 

 










Légende :    VFR   VFR Marginal   IFR   IFR Intensif   IFR Très Intensif
Visi : 
Plafond : 
>= 8 km
>= 3000ft
5 à 8 km
1000 à 3000 ft
1500m à 5 km
500 à 1000 ft
800 à 1500m
200 à 500 ft
< 800m
< 200 ft
Symboles :   Orages  Brouillard  Fortes neiges  Fortes précipitations  Vent > 20 kt
SIGMETs :   Divers  Orages  Givrage  Turbulence  Onde Orograph.  Cendres Volcan.







- Altitude de l'aérodrome : 423 ft
- Code IATA : PIS
- Voir les cartes d'approche


LFBI - Poitiers

DERNIER METAR :
  • 182000Z AUTO 18015KT 9999 -RA NSC 09/07 Q1012 TEMPO 21015G30KT 4000 RA OVC010

METARs EXPIRÉS :
  • 181930Z AUTO 18016KT 9999 -RA FEW036 SCT046 BKN074 09/07 Q1012 TEMPO 21015G30KT 4000 -RA OVC010
  • 181900Z AUTO 19016KT 9999 -RA FEW042 BKN049 BKN058 09/06 Q1012 TEMPO 19015G25KT
  • 181830Z AUTO 19018KT 9999 -RA SCT047 BKN060 OVC070 08/06 Q1012 TEMPO 19015G25KT
  • 181800Z AUTO 19020KT 9999 -RA NSC 09/05 Q1012 TEMPO 19015G25KT
  • 181730Z AUTO 18016KT CAVOK 09/05 Q1011 TEMPO 19015G25KT
  • 181700Z AUTO 18017KT CAVOK 09/05 Q1011 TEMPO 19015G25KT

TAF AMD TAF LFBI
Valide du 18 à 19h jusqu'au 19 à 18h UTC


181925Z 1819/1918 20015KT 9999 -RA BKN040
PROB40
TEMPO 1819/1821 19015G25KT
TEMPO 1821/1824 21015G30KT 4000 RA OVC010
BECMG 1900/1902 NSW
PROB40
TEMPO 1902/1906 BKN008
TEMPO 1906/1910 4000 SHRA FEW020CB BKN030TCU
Pas de NOTAMs connus pour ce terrain.
2 SIGMETs publiés pour la FIR Bordeaux (LFBB) :
 
Turbulence forte
LFBB SIGMET 9 VALID 181900/182200 LFPW
LFBB BORDEAUX FIR/UIR SEV TURB FCST WI N4230 E00030 - N4300 W00145 - N4330 W00145 - N4300 E00045 - N4230 E00030 SFC/FL080 STNR WKN=
Turbulence forte
LFBB SIGMET 10 VALID 182000/182200 LFPW
LFBB BORDEAUX FIR/UIR SEV TURB FCST WI N4445 E00245 - N4330 E00245 - N4330 E00215 - N4400 E00200 - N4445 E00245 SFC/FL060 STNR WKN=



MET'MAP, la Météo Aéronautique d'un coup d'oeil ! - Copyright ORBIFLY Décembre 2007 - Disclaimer

ORBIFLY MET'MAP TEAM :

Programmation & Développement : Alexandra Zaïnal
Conception & Développement : Baudouin d'Aumeries
Co-Programmation & Développement : Marc-Olivier Méhu
Soutien technique & logistique : Manuel Goepfert

Contact : metmap@orbifly.com




SOURCES & CREDITS :

   NOAA